sensor_id;sensor_type;location;lat;lon;timestamp;P1;durP1;ratioP1;P2;durP2;ratioP2
11699;SDS011;5906;51.660;6.674;2023-05-07T00:02:15;13.30;;;10.00;;
11699;SDS011;5906;51.660;6.674;2023-05-07T00:04:41;13.17;;;9.83;;
11699;SDS011;5906;51.660;6.674;2023-05-07T00:07:08;13.83;;;10.07;;
11699;SDS011;5906;51.660;6.674;2023-05-07T00:09:35;11.33;;;9.47;;
11699;SDS011;5906;51.660;6.674;2023-05-07T00:12:02;14.53;;;9.13;;
11699;SDS011;5906;51.660;6.674;2023-05-07T00:14:29;12.80;;;9.20;;
11699;SDS011;5906;51.660;6.674;2023-05-07T00:16:57;16.07;;;10.27;;
11699;SDS011;5906;51.660;6.674;2023-05-07T00:19:24;12.63;;;9.60;;
11699;SDS011;5906;51.660;6.674;2023-05-07T00:21:51;10.53;;;9.30;;
11699;SDS011;5906;51.660;6.674;2023-05-07T00:24:20;14.40;;;9.40;;
11699;SDS011;5906;51.660;6.674;2023-05-07T00:26:47;14.57;;;9.90;;
11699;SDS011;5906;51.660;6.674;2023-05-07T00:29:14;14.90;;;10.30;;
11699;SDS011;5906;51.660;6.674;2023-05-07T00:31:41;14.63;;;9.57;;
11699;SDS011;5906;51.660;6.674;2023-05-07T00:34:08;15.13;;;9.50;;
11699;SDS011;5906;51.660;6.674;2023-05-07T00:36:35;13.70;;;9.60;;
11699;SDS011;5906;51.660;6.674;2023-05-07T00:39:02;13.80;;;9.57;;
11699;SDS011;5906;51.660;6.674;2023-05-07T00:41:30;15.97;;;10.67;;
11699;SDS011;5906;51.660;6.674;2023-05-07T00:43:57;13.10;;;9.70;;
11699;SDS011;5906;51.660;6.674;2023-05-07T00:46:24;13.73;;;9.83;;
11699;SDS011;5906;51.660;6.674;2023-05-07T00:48:52;15.80;;;9.33;;
11699;SDS011;5906;51.660;6.674;2023-05-07T00:51:21;15.30;;;10.40;;
11699;SDS011;5906;51.660;6.674;2023-05-07T00:53:49;10.13;;;8.67;;
11699;SDS011;5906;51.660;6.674;2023-05-07T00:56:17;15.90;;;10.00;;
11699;SDS011;5906;51.660;6.674;2023-05-07T00:58:44;11.90;;;9.43;;
11699;SDS011;5906;51.660;6.674;2023-05-07T01:01:11;13.80;;;9.60;;
11699;SDS011;5906;51.660;6.674;2023-05-07T01:03:38;14.03;;;10.40;;
11699;SDS011;5906;51.660;6.674;2023-05-07T01:06:05;12.77;;;10.20;;
11699;SDS011;5906;51.660;6.674;2023-05-07T01:08:34;13.40;;;9.50;;
11699;SDS011;5906;51.660;6.674;2023-05-07T01:11:02;15.30;;;10.77;;
11699;SDS011;5906;51.660;6.674;2023-05-07T01:13:29;14.40;;;10.70;;
11699;SDS011;5906;51.660;6.674;2023-05-07T01:15:57;14.30;;;10.40;;
11699;SDS011;5906;51.660;6.674;2023-05-07T01:18:24;13.50;;;10.27;;
11699;SDS011;5906;51.660;6.674;2023-05-07T01:20:52;14.17;;;10.40;;
11699;SDS011;5906;51.660;6.674;2023-05-07T01:23:18;17.73;;;11.20;;
11699;SDS011;5906;51.660;6.674;2023-05-07T01:25:52;16.40;;;10.53;;
11699;SDS011;5906;51.660;6.674;2023-05-07T01:28:20;15.30;;;11.07;;
11699;SDS011;5906;51.660;6.674;2023-05-07T01:30:48;16.37;;;11.33;;
11699;SDS011;5906;51.660;6.674;2023-05-07T01:33:19;16.43;;;11.90;;
11699;SDS011;5906;51.660;6.674;2023-05-07T01:35:51;17.17;;;12.47;;
11699;SDS011;5906;51.660;6.674;2023-05-07T01:38:20;17.07;;;12.07;;
11699;SDS011;5906;51.660;6.674;2023-05-07T01:40:48;17.03;;;11.20;;
11699;SDS011;5906;51.660;6.674;2023-05-07T01:43:15;21.13;;;12.23;;
11699;SDS011;5906;51.660;6.674;2023-05-07T01:45:42;16.20;;;12.47;;
11699;SDS011;5906;51.660;6.674;2023-05-07T01:48:11;21.93;;;11.73;;
11699;SDS011;5906;51.660;6.674;2023-05-07T01:50:39;16.93;;;13.20;;
11699;SDS011;5906;51.660;6.674;2023-05-07T01:53:06;17.53;;;13.47;;
11699;SDS011;5906;51.660;6.674;2023-05-07T01:55:33;22.43;;;12.90;;
11699;SDS011;5906;51.660;6.674;2023-05-07T01:58:03;18.30;;;13.10;;
11699;SDS011;5906;51.660;6.674;2023-05-07T02:00:30;19.53;;;12.63;;
11699;SDS011;5906;51.660;6.674;2023-05-07T02:02:58;19.73;;;14.50;;
11699;SDS011;5906;51.660;6.674;2023-05-07T02:05:25;23.37;;;14.60;;
11699;SDS011;5906;51.660;6.674;2023-05-07T02:07:52;21.13;;;12.90;;
11699;SDS011;5906;51.660;6.674;2023-05-07T02:10:19;19.10;;;14.77;;
11699;SDS011;5906;51.660;6.674;2023-05-07T02:12:46;24.50;;;15.27;;
11699;SDS011;5906;51.660;6.674;2023-05-07T02:15:13;20.77;;;14.57;;
11699;SDS011;5906;51.660;6.674;2023-05-07T02:17:57;19.97;;;14.70;;
11699;SDS011;5906;51.660;6.674;2023-05-07T02:20:28;22.67;;;15.40;;
11699;SDS011;5906;51.660;6.674;2023-05-07T02:22:55;22.60;;;14.53;;
11699;SDS011;5906;51.660;6.674;2023-05-07T02:25:22;21.20;;;15.53;;
11699;SDS011;5906;51.660;6.674;2023-05-07T02:27:49;23.93;;;16.17;;
11699;SDS011;5906;51.660;6.674;2023-05-07T02:30:16;21.07;;;14.60;;
11699;SDS011;5906;51.660;6.674;2023-05-07T02:32:43;23.87;;;15.20;;
11699;SDS011;5906;51.660;6.674;2023-05-07T02:35:11;23.77;;;16.80;;
11699;SDS011;5906;51.660;6.674;2023-05-07T02:37:38;25.80;;;16.70;;
11699;SDS011;5906;51.660;6.674;2023-05-07T02:40:05;21.97;;;15.47;;
11699;SDS011;5906;51.660;6.674;2023-05-07T02:42:32;30.70;;;17.80;;
11699;SDS011;5906;51.660;6.674;2023-05-07T02:44:59;24.20;;;16.83;;
11699;SDS011;5906;51.660;6.674;2023-05-07T02:47:27;23.20;;;17.43;;
11699;SDS011;5906;51.660;6.674;2023-05-07T02:49:55;22.73;;;16.60;;
11699;SDS011;5906;51.660;6.674;2023-05-07T02:52:21;23.33;;;16.63;;
11699;SDS011;5906;51.660;6.674;2023-05-07T02:54:48;24.87;;;16.57;;
11699;SDS011;5906;51.660;6.674;2023-05-07T02:57:15;24.93;;;16.20;;
11699;SDS011;5906;51.660;6.674;2023-05-07T02:59:43;26.77;;;17.03;;
11699;SDS011;5906;51.660;6.674;2023-05-07T03:02:10;22.63;;;16.13;;
11699;SDS011;5906;51.660;6.674;2023-05-07T03:04:37;22.83;;;16.40;;
11699;SDS011;5906;51.660;6.674;2023-05-07T03:07:05;23.83;;;16.37;;
11699;SDS011;5906;51.660;6.674;2023-05-07T03:09:32;26.23;;;17.20;;
11699;SDS011;5906;51.660;6.674;2023-05-07T03:11:59;24.20;;;16.50;;
11699;SDS011;5906;51.660;6.674;2023-05-07T03:14:26;25.77;;;16.47;;
11699;SDS011;5906;51.660;6.674;2023-05-07T03:16:53;25.27;;;16.80;;
11699;SDS011;5906;51.660;6.674;2023-05-07T03:19:20;31.03;;;16.77;;
11699;SDS011;5906;51.660;6.674;2023-05-07T03:21:48;25.90;;;17.67;;
11699;SDS011;5906;51.660;6.674;2023-05-07T03:24:14;21.83;;;16.23;;
11699;SDS011;5906;51.660;6.674;2023-05-07T03:26:42;25.10;;;16.63;;
11699;SDS011;5906;51.660;6.674;2023-05-07T03:29:08;26.40;;;16.00;;
11699;SDS011;5906;51.660;6.674;2023-05-07T03:31:35;26.37;;;17.27;;
11699;SDS011;5906;51.660;6.674;2023-05-07T03:34:02;23.33;;;16.53;;
11699;SDS011;5906;51.660;6.674;2023-05-07T03:36:30;27.23;;;17.23;;
11699;SDS011;5906;51.660;6.674;2023-05-07T03:38:57;23.63;;;16.70;;
11699;SDS011;5906;51.660;6.674;2023-05-07T03:41:24;23.30;;;15.80;;
11699;SDS011;5906;51.660;6.674;2023-05-07T03:43:52;22.23;;;16.37;;
11699;SDS011;5906;51.660;6.674;2023-05-07T03:46:19;25.10;;;16.93;;
11699;SDS011;5906;51.660;6.674;2023-05-07T03:48:46;24.83;;;16.47;;
11699;SDS011;5906;51.660;6.674;2023-05-07T03:51:13;26.87;;;16.80;;
11699;SDS011;5906;51.660;6.674;2023-05-07T03:53:40;28.50;;;17.10;;
11699;SDS011;5906;51.660;6.674;2023-05-07T03:56:07;26.53;;;16.60;;
11699;SDS011;5906;51.660;6.674;2023-05-07T03:58:34;23.63;;;16.57;;
11699;SDS011;5906;51.660;6.674;2023-05-07T04:01:01;24.70;;;16.23;;
11699;SDS011;5906;51.660;6.674;2023-05-07T04:03:29;20.90;;;16.00;;
11699;SDS011;5906;51.660;6.674;2023-05-07T04:05:56;24.90;;;17.37;;
11699;SDS011;5906;51.660;6.674;2023-05-07T04:08:23;24.90;;;16.37;;
11699;SDS011;5906;51.660;6.674;2023-05-07T04:10:54;27.20;;;16.60;;
11699;SDS011;5906;51.660;6.674;2023-05-07T04:13:24;25.53;;;17.10;;
11699;SDS011;5906;51.660;6.674;2023-05-07T04:15:52;25.20;;;17.13;;
11699;SDS011;5906;51.660;6.674;2023-05-07T04:18:20;26.03;;;17.60;;
11699;SDS011;5906;51.660;6.674;2023-05-07T04:20:47;23.10;;;17.00;;
11699;SDS011;5906;51.660;6.674;2023-05-07T04:23:17;27.97;;;17.87;;
11699;SDS011;5906;51.660;6.674;2023-05-07T04:25:44;25.10;;;17.03;;
11699;SDS011;5906;51.660;6.674;2023-05-07T04:28:11;23.90;;;16.97;;
11699;SDS011;5906;51.660;6.674;2023-05-07T04:30:38;22.67;;;16.60;;
11699;SDS011;5906;51.660;6.674;2023-05-07T04:33:05;24.20;;;17.70;;
11699;SDS011;5906;51.660;6.674;2023-05-07T04:35:33;22.47;;;16.60;;
11699;SDS011;5906;51.660;6.674;2023-05-07T04:38:00;25.23;;;17.40;;
11699;SDS011;5906;51.660;6.674;2023-05-07T04:40:28;23.33;;;17.27;;
11699;SDS011;5906;51.660;6.674;2023-05-07T04:42:55;25.60;;;17.30;;
11699;SDS011;5906;51.660;6.674;2023-05-07T04:45:22;26.90;;;17.10;;
11699;SDS011;5906;51.660;6.674;2023-05-07T04:47:49;28.00;;;17.50;;
11699;SDS011;5906;51.660;6.674;2023-05-07T04:50:16;24.33;;;16.40;;
11699;SDS011;5906;51.660;6.674;2023-05-07T04:52:45;23.70;;;17.70;;
11699;SDS011;5906;51.660;6.674;2023-05-07T04:55:12;24.30;;;15.80;;
11699;SDS011;5906;51.660;6.674;2023-05-07T04:57:39;27.27;;;15.83;;
11699;SDS011;5906;51.660;6.674;2023-05-07T05:00:07;23.57;;;16.47;;
11699;SDS011;5906;51.660;6.674;2023-05-07T05:02:35;24.80;;;15.63;;
11699;SDS011;5906;51.660;6.674;2023-05-07T05:05:02;24.70;;;17.13;;
11699;SDS011;5906;51.660;6.674;2023-05-07T05:07:29;24.57;;;17.30;;
11699;SDS011;5906;51.660;6.674;2023-05-07T05:09:56;23.13;;;15.70;;
11699;SDS011;5906;51.660;6.674;2023-05-07T05:12:24;23.67;;;16.70;;
11699;SDS011;5906;51.660;6.674;2023-05-07T05:14:51;23.77;;;15.77;;
11699;SDS011;5906;51.660;6.674;2023-05-07T05:17:18;22.73;;;15.83;;
11699;SDS011;5906;51.660;6.674;2023-05-07T05:19:45;24.27;;;16.63;;
11699;SDS011;5906;51.660;6.674;2023-05-07T05:22:12;24.97;;;16.10;;
11699;SDS011;5906;51.660;6.674;2023-05-07T05:24:39;29.03;;;17.10;;
11699;SDS011;5906;51.660;6.674;2023-05-07T05:27:06;23.30;;;15.83;;
11699;SDS011;5906;51.660;6.674;2023-05-07T05:29:32;21.60;;;15.23;;
11699;SDS011;5906;51.660;6.674;2023-05-07T05:31:59;21.87;;;15.63;;
11699;SDS011;5906;51.660;6.674;2023-05-07T05:34:27;28.50;;;16.40;;
11699;SDS011;5906;51.660;6.674;2023-05-07T05:36:54;26.00;;;17.60;;
11699;SDS011;5906;51.660;6.674;2023-05-07T05:39:21;23.90;;;15.67;;
11699;SDS011;5906;51.660;6.674;2023-05-07T05:41:49;23.97;;;16.23;;
11699;SDS011;5906;51.660;6.674;2023-05-07T05:44:16;26.47;;;16.03;;
11699;SDS011;5906;51.660;6.674;2023-05-07T05:46:43;25.00;;;14.93;;
11699;SDS011;5906;51.660;6.674;2023-05-07T05:49:10;20.40;;;14.47;;
11699;SDS011;5906;51.660;6.674;2023-05-07T05:51:37;21.93;;;14.87;;
11699;SDS011;5906;51.660;6.674;2023-05-07T05:54:04;22.23;;;15.60;;
11699;SDS011;5906;51.660;6.674;2023-05-07T05:56:31;23.20;;;15.70;;
11699;SDS011;5906;51.660;6.674;2023-05-07T05:58:58;20.07;;;14.83;;
11699;SDS011;5906;51.660;6.674;2023-05-07T06:01:25;18.80;;;14.43;;
11699;SDS011;5906;51.660;6.674;2023-05-07T06:03:52;19.13;;;14.00;;
11699;SDS011;5906;51.660;6.674;2023-05-07T06:06:19;18.63;;;14.53;;
11699;SDS011;5906;51.660;6.674;2023-05-07T06:08:46;19.70;;;13.73;;
11699;SDS011;5906;51.660;6.674;2023-05-07T06:11:13;23.90;;;13.83;;
11699;SDS011;5906;51.660;6.674;2023-05-07T06:13:40;18.63;;;14.13;;
11699;SDS011;5906;51.660;6.674;2023-05-07T06:16:07;19.23;;;12.93;;
11699;SDS011;5906;51.660;6.674;2023-05-07T06:18:34;17.93;;;12.83;;
11699;SDS011;5906;51.660;6.674;2023-05-07T06:21:02;19.77;;;13.50;;
11699;SDS011;5906;51.660;6.674;2023-05-07T06:23:29;20.97;;;13.00;;
11699;SDS011;5906;51.660;6.674;2023-05-07T06:25:56;21.73;;;13.40;;
11699;SDS011;5906;51.660;6.674;2023-05-07T06:28:23;18.83;;;12.73;;
11699;SDS011;5906;51.660;6.674;2023-05-07T06:30:50;17.80;;;11.90;;
11699;SDS011;5906;51.660;6.674;2023-05-07T06:33:17;19.50;;;12.07;;
11699;SDS011;5906;51.660;6.674;2023-05-07T06:35:45;15.90;;;12.20;;
11699;SDS011;5906;51.660;6.674;2023-05-07T06:38:13;16.50;;;11.20;;
11699;SDS011;5906;51.660;6.674;2023-05-07T06:40:39;20.53;;;12.90;;
11699;SDS011;5906;51.660;6.674;2023-05-07T06:43:06;17.80;;;11.83;;
11699;SDS011;5906;51.660;6.674;2023-05-07T06:45:33;17.17;;;12.27;;
11699;SDS011;5906;51.660;6.674;2023-05-07T06:48:00;15.00;;;11.57;;
11699;SDS011;5906;51.660;6.674;2023-05-07T06:50:27;17.07;;;10.97;;
11699;SDS011;5906;51.660;6.674;2023-05-07T06:52:54;14.07;;;10.33;;
11699;SDS011;5906;51.660;6.674;2023-05-07T06:55:21;13.63;;;10.60;;
11699;SDS011;5906;51.660;6.674;2023-05-07T06:57:48;13.77;;;9.33;;
11699;SDS011;5906;51.660;6.674;2023-05-07T07:00:15;11.83;;;9.53;;
11699;SDS011;5906;51.660;6.674;2023-05-07T07:02:42;15.00;;;9.17;;
11699;SDS011;5906;51.660;6.674;2023-05-07T07:05:09;11.47;;;8.77;;
11699;SDS011;5906;51.660;6.674;2023-05-07T07:07:36;18.03;;;8.40;;
11699;SDS011;5906;51.660;6.674;2023-05-07T07:10:03;16.17;;;9.60;;
11699;SDS011;5906;51.660;6.674;2023-05-07T07:12:31;13.67;;;8.63;;
11699;SDS011;5906;51.660;6.674;2023-05-07T07:14:58;12.63;;;7.90;;
11699;SDS011;5906;51.660;6.674;2023-05-07T07:17:25;12.00;;;8.23;;
11699;SDS011;5906;51.660;6.674;2023-05-07T07:19:52;8.20;;;7.30;;
11699;SDS011;5906;51.660;6.674;2023-05-07T07:22:19;10.93;;;7.83;;
11699;SDS011;5906;51.660;6.674;2023-05-07T07:24:46;10.70;;;6.90;;
11699;SDS011;5906;51.660;6.674;2023-05-07T07:27:13;8.00;;;6.53;;
11699;SDS011;5906;51.660;6.674;2023-05-07T07:29:40;11.57;;;7.20;;
11699;SDS011;5906;51.660;6.674;2023-05-07T07:32:07;12.87;;;6.80;;
11699;SDS011;5906;51.660;6.674;2023-05-07T07:34:34;10.73;;;6.67;;
11699;SDS011;5906;51.660;6.674;2023-05-07T07:37:01;7.53;;;6.47;;
11699;SDS011;5906;51.660;6.674;2023-05-07T07:39:31;10.63;;;7.40;;
11699;SDS011;5906;51.660;6.674;2023-05-07T07:42:03;9.30;;;6.57;;
11699;SDS011;5906;51.660;6.674;2023-05-07T07:44:31;6.90;;;6.20;;
11699;SDS011;5906;51.660;6.674;2023-05-07T07:46:58;10.23;;;7.20;;
11699;SDS011;5906;51.660;6.674;2023-05-07T07:49:25;8.90;;;6.63;;
11699;SDS011;5906;51.660;6.674;2023-05-07T07:51:52;9.00;;;6.30;;
11699;SDS011;5906;51.660;6.674;2023-05-07T07:54:20;9.50;;;6.87;;
11699;SDS011;5906;51.660;6.674;2023-05-07T07:56:47;7.90;;;6.67;;
11699;SDS011;5906;51.660;6.674;2023-05-07T07:59:14;21.50;;;6.53;;
11699;SDS011;5906;51.660;6.674;2023-05-07T08:01:44;8.93;;;6.20;;
11699;SDS011;5906;51.660;6.674;2023-05-07T08:04:11;17.33;;;6.40;;
11699;SDS011;5906;51.660;6.674;2023-05-07T08:06:38;7.90;;;5.77;;
11699;SDS011;5906;51.660;6.674;2023-05-07T08:09:05;5.73;;;4.93;;
11699;SDS011;5906;51.660;6.674;2023-05-07T08:11:32;8.80;;;5.90;;
11699;SDS011;5906;51.660;6.674;2023-05-07T08:13:59;8.73;;;5.47;;
11699;SDS011;5906;51.660;6.674;2023-05-07T08:16:26;9.90;;;5.20;;
11699;SDS011;5906;51.660;6.674;2023-05-07T08:18:56;9.23;;;5.40;;
11699;SDS011;5906;51.660;6.674;2023-05-07T08:21:23;10.03;;;5.30;;
11699;SDS011;5906;51.660;6.674;2023-05-07T08:23:50;6.47;;;5.40;;
11699;SDS011;5906;51.660;6.674;2023-05-07T08:26:17;8.03;;;5.30;;
11699;SDS011;5906;51.660;6.674;2023-05-07T08:28:43;6.77;;;5.17;;
11699;SDS011;5906;51.660;6.674;2023-05-07T08:31:11;9.33;;;5.47;;
11699;SDS011;5906;51.660;6.674;2023-05-07T08:33:38;7.17;;;5.80;;
11699;SDS011;5906;51.660;6.674;2023-05-07T08:36:05;7.10;;;5.57;;
11699;SDS011;5906;51.660;6.674;2023-05-07T08:38:32;7.37;;;5.40;;
11699;SDS011;5906;51.660;6.674;2023-05-07T08:40:59;6.87;;;5.23;;
11699;SDS011;5906;51.660;6.674;2023-05-07T08:43:26;7.37;;;5.57;;
11699;SDS011;5906;51.660;6.674;2023-05-07T08:45:54;10.83;;;6.60;;
11699;SDS011;5906;51.660;6.674;2023-05-07T08:48:24;8.60;;;5.30;;
11699;SDS011;5906;51.660;6.674;2023-05-07T08:50:53;8.00;;;5.53;;
11699;SDS011;5906;51.660;6.674;2023-05-07T08:53:21;9.00;;;6.10;;
11699;SDS011;5906;51.660;6.674;2023-05-07T08:55:48;7.10;;;5.90;;
11699;SDS011;5906;51.660;6.674;2023-05-07T08:58:15;8.63;;;5.53;;
11699;SDS011;5906;51.660;6.674;2023-05-07T09:00:42;6.67;;;5.53;;
11699;SDS011;5906;51.660;6.674;2023-05-07T09:03:10;6.70;;;5.40;;
11699;SDS011;5906;51.660;6.674;2023-05-07T09:05:39;8.13;;;5.23;;
11699;SDS011;5906;51.660;6.674;2023-05-07T09:08:07;6.00;;;4.80;;
11699;SDS011;5906;51.660;6.674;2023-05-07T09:10:34;6.00;;;4.90;;
11699;SDS011;5906;51.660;6.674;2023-05-07T09:13:02;6.70;;;4.90;;
11699;SDS011;5906;51.660;6.674;2023-05-07T09:15:30;6.80;;;4.50;;
11699;SDS011;5906;51.660;6.674;2023-05-07T09:18:00;5.20;;;4.53;;
11699;SDS011;5906;51.660;6.674;2023-05-07T09:20:29;5.90;;;4.13;;
11699;SDS011;5906;51.660;6.674;2023-05-07T09:22:57;5.03;;;4.50;;
11699;SDS011;5906;51.660;6.674;2023-05-07T09:25:31;5.83;;;3.50;;
11699;SDS011;5906;51.660;6.674;2023-05-07T09:27:59;4.23;;;3.73;;
11699;SDS011;5906;51.660;6.674;2023-05-07T09:30:27;9.10;;;3.97;;
11699;SDS011;5906;51.660;6.674;2023-05-07T09:32:58;8.03;;;4.37;;
11699;SDS011;5906;51.660;6.674;2023-05-07T09:35:26;6.60;;;4.07;;
11699;SDS011;5906;51.660;6.674;2023-05-07T09:37:54;4.30;;;3.90;;
11699;SDS011;5906;51.660;6.674;2023-05-07T09:40:24;5.23;;;4.40;;
11699;SDS011;5906;51.660;6.674;2023-05-07T09:42:52;4.87;;;4.37;;
11699;SDS011;5906;51.660;6.674;2023-05-07T09:45:26;12.73;;;4.17;;
11699;SDS011;5906;51.660;6.674;2023-05-07T09:47:55;4.40;;;3.43;;
11699;SDS011;5906;51.660;6.674;2023-05-07T09:50:26;4.13;;;3.50;;
11699;SDS011;5906;51.660;6.674;2023-05-07T09:52:55;3.97;;;3.60;;
11699;SDS011;5906;51.660;6.674;2023-05-07T09:55:23;4.40;;;3.97;;
11699;SDS011;5906;51.660;6.674;2023-05-07T09:57:50;5.90;;;4.33;;
11699;SDS011;5906;51.660;6.674;2023-05-07T10:00:19;6.73;;;5.50;;
11699;SDS011;5906;51.660;6.674;2023-05-07T10:02:48;4.80;;;4.30;;
11699;SDS011;5906;51.660;6.674;2023-05-07T10:05:19;7.00;;;3.93;;
11699;SDS011;5906;51.660;6.674;2023-05-07T10:07:49;5.90;;;2.90;;
11699;SDS011;5906;51.660;6.674;2023-05-07T10:10:19;5.73;;;3.30;;
11699;SDS011;5906;51.660;6.674;2023-05-07T10:12:47;3.70;;;3.40;;
11699;SDS011;5906;51.660;6.674;2023-05-07T10:15:14;5.80;;;3.90;;
11699;SDS011;5906;51.660;6.674;2023-05-07T10:17:41;4.10;;;3.43;;
11699;SDS011;5906;51.660;6.674;2023-05-07T10:20:08;4.73;;;4.10;;
11699;SDS011;5906;51.660;6.674;2023-05-07T10:22:41;8.60;;;3.43;;
11699;SDS011;5906;51.660;6.674;2023-05-07T10:25:14;5.13;;;3.50;;
11699;SDS011;5906;51.660;6.674;2023-05-07T10:27:55;3.53;;;2.93;;
11699;SDS011;5906;51.660;6.674;2023-05-07T10:33:15;4.20;;;3.40;;
11699;SDS011;5906;51.660;6.674;2023-05-07T10:35:46;4.37;;;3.40;;
11699;SDS011;5906;51.660;6.674;2023-05-07T10:38:14;4.10;;;3.53;;
11699;SDS011;5906;51.660;6.674;2023-05-07T10:40:42;6.23;;;3.53;;
11699;SDS011;5906;51.660;6.674;2023-05-07T10:43:13;8.33;;;4.30;;
11699;SDS011;5906;51.660;6.674;2023-05-07T10:45:40;3.63;;;3.33;;
11699;SDS011;5906;51.660;6.674;2023-05-07T10:53:45;3.80;;;3.40;;
11699;SDS011;5906;51.660;6.674;2023-05-07T10:58:45;4.20;;;3.03;;
11699;SDS011;5906;51.660;6.674;2023-05-07T11:01:12;3.30;;;2.73;;
11699;SDS011;5906;51.660;6.674;2023-05-07T11:04:12;7.63;;;2.87;;
11699;SDS011;5906;51.660;6.674;2023-05-07T11:06:42;3.63;;;2.70;;
11699;SDS011;5906;51.660;6.674;2023-05-07T11:09:54;3.73;;;3.00;;
11699;SDS011;5906;51.660;6.674;2023-05-07T11:15:11;4.13;;;2.63;;
11699;SDS011;5906;51.660;6.674;2023-05-07T11:17:52;4.07;;;3.03;;
11699;SDS011;5906;51.660;6.674;2023-05-07T11:20:21;5.50;;;3.07;;
11699;SDS011;5906;51.660;6.674;2023-05-07T11:26:07;7.33;;;3.53;;
11699;SDS011;5906;51.660;6.674;2023-05-07T11:28:38;6.37;;;3.10;;
11699;SDS011;5906;51.660;6.674;2023-05-07T11:31:06;7.30;;;3.80;;
11699;SDS011;5906;51.660;6.674;2023-05-07T11:33:34;4.70;;;3.60;;
11699;SDS011;5906;51.660;6.674;2023-05-07T11:36:03;5.10;;;3.07;;
11699;SDS011;5906;51.660;6.674;2023-05-07T11:38:34;5.67;;;3.00;;
11699;SDS011;5906;51.660;6.674;2023-05-07T11:41:03;7.33;;;3.40;;
11699;SDS011;5906;51.660;6.674;2023-05-07T11:43:33;3.00;;;2.60;;
11699;SDS011;5906;51.660;6.674;2023-05-07T11:46:06;5.47;;;3.40;;
11699;SDS011;5906;51.660;6.674;2023-05-07T11:48:37;6.90;;;3.23;;
11699;SDS011;5906;51.660;6.674;2023-05-07T11:51:05;6.50;;;3.30;;
11699;SDS011;5906;51.660;6.674;2023-05-07T11:53:39;4.97;;;3.20;;
11699;SDS011;5906;51.660;6.674;2023-05-07T11:56:10;4.80;;;3.70;;
11699;SDS011;5906;51.660;6.674;2023-05-07T11:58:39;6.40;;;3.83;;
11699;SDS011;5906;51.660;6.674;2023-05-07T12:01:08;10.23;;;4.00;;
11699;SDS011;5906;51.660;6.674;2023-05-07T12:03:36;5.60;;;3.90;;
11699;SDS011;5906;51.660;6.674;2023-05-07T12:06:07;7.10;;;3.90;;
11699;SDS011;5906;51.660;6.674;2023-05-07T12:08:39;4.80;;;4.30;;
11699;SDS011;5906;51.660;6.674;2023-05-07T12:11:07;5.00;;;3.57;;
11699;SDS011;5906;51.660;6.674;2023-05-07T12:13:37;4.50;;;3.30;;
11699;SDS011;5906;51.660;6.674;2023-05-07T12:16:05;6.00;;;3.47;;
11699;SDS011;5906;51.660;6.674;2023-05-07T12:18:34;4.50;;;3.43;;
11699;SDS011;5906;51.660;6.674;2023-05-07T12:21:01;5.17;;;3.37;;
11699;SDS011;5906;51.660;6.674;2023-05-07T12:23:30;4.30;;;3.00;;
11699;SDS011;5906;51.660;6.674;2023-05-07T12:25:57;6.37;;;3.17;;
11699;SDS011;5906;51.660;6.674;2023-05-07T12:28:26;5.17;;;3.33;;
11699;SDS011;5906;51.660;6.674;2023-05-07T12:30:53;3.63;;;3.27;;
11699;SDS011;5906;51.660;6.674;2023-05-07T12:33:24;13.60;;;3.63;;
11699;SDS011;5906;51.660;6.674;2023-05-07T12:35:53;5.57;;;4.43;;
11699;SDS011;5906;51.660;6.674;2023-05-07T12:38:21;8.67;;;3.10;;
11699;SDS011;5906;51.660;6.674;2023-05-07T12:40:49;3.60;;;3.20;;
11699;SDS011;5906;51.660;6.674;2023-05-07T12:43:20;6.23;;;3.27;;
11699;SDS011;5906;51.660;6.674;2023-05-07T12:45:53;5.47;;;4.60;;
11699;SDS011;5906;51.660;6.674;2023-05-07T12:48:21;4.80;;;3.60;;
11699;SDS011;5906;51.660;6.674;2023-05-07T12:50:50;5.73;;;3.83;;
11699;SDS011;5906;51.660;6.674;2023-05-07T12:53:19;5.93;;;3.23;;
11699;SDS011;5906;51.660;6.674;2023-05-07T12:55:49;4.27;;;3.33;;
11699;SDS011;5906;51.660;6.674;2023-05-07T12:58:19;4.30;;;3.33;;
11699;SDS011;5906;51.660;6.674;2023-05-07T13:00:49;4.17;;;3.13;;
11699;SDS011;5906;51.660;6.674;2023-05-07T13:03:21;5.00;;;3.53;;
11699;SDS011;5906;51.660;6.674;2023-05-07T13:05:50;5.47;;;3.20;;
11699;SDS011;5906;51.660;6.674;2023-05-07T13:10:56;5.60;;;3.87;;
11699;SDS011;5906;51.660;6.674;2023-05-07T13:13:24;4.50;;;3.90;;
11699;SDS011;5906;51.660;6.674;2023-05-07T13:15:51;4.43;;;3.83;;
11699;SDS011;5906;51.660;6.674;2023-05-07T13:18:18;5.70;;;4.40;;
11699;SDS011;5906;51.660;6.674;2023-05-07T13:20:45;5.20;;;4.13;;
11699;SDS011;5906;51.660;6.674;2023-05-07T13:23:12;5.23;;;3.80;;
11699;SDS011;5906;51.660;6.674;2023-05-07T13:25:39;9.27;;;3.50;;
11699;SDS011;5906;51.660;6.674;2023-05-07T13:28:06;6.50;;;4.07;;
11699;SDS011;5906;51.660;6.674;2023-05-07T13:30:36;5.50;;;4.37;;
11699;SDS011;5906;51.660;6.674;2023-05-07T13:33:03;5.50;;;4.27;;
11699;SDS011;5906;51.660;6.674;2023-05-07T13:35:30;9.43;;;4.90;;
11699;SDS011;5906;51.660;6.674;2023-05-07T13:37:57;5.50;;;4.27;;
11699;SDS011;5906;51.660;6.674;2023-05-07T13:40:24;4.57;;;3.90;;
11699;SDS011;5906;51.660;6.674;2023-05-07T13:42:51;6.80;;;4.93;;
11699;SDS011;5906;51.660;6.674;2023-05-07T13:45:19;6.27;;;5.20;;
11699;SDS011;5906;51.660;6.674;2023-05-07T13:47:46;11.07;;;5.13;;
11699;SDS011;5906;51.660;6.674;2023-05-07T13:50:15;8.00;;;4.83;;
11699;SDS011;5906;51.660;6.674;2023-05-07T13:52:42;8.90;;;5.10;;
11699;SDS011;5906;51.660;6.674;2023-05-07T13:55:17;9.83;;;4.93;;
11699;SDS011;5906;51.660;6.674;2023-05-07T13:57:45;7.77;;;4.40;;
11699;SDS011;5906;51.660;6.674;2023-05-07T14:00:13;6.87;;;5.23;;
11699;SDS011;5906;51.660;6.674;2023-05-07T14:02:40;7.80;;;4.97;;
11699;SDS011;5906;51.660;6.674;2023-05-07T14:05:08;7.33;;;5.00;;
11699;SDS011;5906;51.660;6.674;2023-05-07T14:07:36;7.60;;;4.63;;
11699;SDS011;5906;51.660;6.674;2023-05-07T14:10:03;7.37;;;5.30;;
11699;SDS011;5906;51.660;6.674;2023-05-07T14:12:31;7.10;;;4.93;;
11699;SDS011;5906;51.660;6.674;2023-05-07T14:14:59;7.83;;;4.93;;
11699;SDS011;5906;51.660;6.674;2023-05-07T14:17:26;7.23;;;4.80;;
11699;SDS011;5906;51.660;6.674;2023-05-07T14:19:53;8.10;;;5.00;;
11699;SDS011;5906;51.660;6.674;2023-05-07T14:22:22;6.43;;;4.77;;
11699;SDS011;5906;51.660;6.674;2023-05-07T14:24:49;7.60;;;5.50;;
11699;SDS011;5906;51.660;6.674;2023-05-07T14:27:31;6.63;;;4.90;;
11699;SDS011;5906;51.660;6.674;2023-05-07T14:29:58;6.63;;;4.80;;
11699;SDS011;5906;51.660;6.674;2023-05-07T14:32:25;8.57;;;4.87;;
11699;SDS011;5906;51.660;6.674;2023-05-07T14:34:52;6.73;;;5.00;;
11699;SDS011;5906;51.660;6.674;2023-05-07T14:37:19;7.10;;;5.33;;
11699;SDS011;5906;51.660;6.674;2023-05-07T14:39:46;10.67;;;6.87;;
11699;SDS011;5906;51.660;6.674;2023-05-07T14:42:16;8.83;;;6.00;;
11699;SDS011;5906;51.660;6.674;2023-05-07T14:44:43;6.53;;;5.33;;
11699;SDS011;5906;51.660;6.674;2023-05-07T14:47:12;8.23;;;5.40;;
11699;SDS011;5906;51.660;6.674;2023-05-07T14:49:39;8.30;;;4.33;;
11699;SDS011;5906;51.660;6.674;2023-05-07T14:52:07;6.80;;;5.40;;
11699;SDS011;5906;51.660;6.674;2023-05-07T14:54:37;9.07;;;6.00;;
11699;SDS011;5906;51.660;6.674;2023-05-07T14:57:05;11.30;;;5.70;;
11699;SDS011;5906;51.660;6.674;2023-05-07T14:59:33;10.10;;;6.27;;
11699;SDS011;5906;51.660;6.674;2023-05-07T15:02:00;7.57;;;6.23;;
11699;SDS011;5906;51.660;6.674;2023-05-07T15:04:32;8.27;;;6.17;;
11699;SDS011;5906;51.660;6.674;2023-05-07T15:06:59;9.63;;;6.10;;
11699;SDS011;5906;51.660;6.674;2023-05-07T15:09:26;8.83;;;5.90;;
11699;SDS011;5906;51.660;6.674;2023-05-07T15:11:53;10.63;;;6.40;;
11699;SDS011;5906;51.660;6.674;2023-05-07T15:14:20;7.87;;;5.90;;